sensor_id;sensor_type;location;lat;lon;timestamp;P1;durP1;ratioP1;P2;durP2;ratioP2
14381;SDS011;7275;50.328;8.720;2022-10-28T00:00:48;4.67;;;4.00;;
14381;SDS011;7275;50.328;8.720;2022-10-28T00:03:17;7.27;;;4.30;;
14381;SDS011;7275;50.328;8.720;2022-10-28T00:05:44;5.07;;;4.00;;
14381;SDS011;7275;50.328;8.720;2022-10-28T00:08:12;6.43;;;3.97;;
14381;SDS011;7275;50.328;8.720;2022-10-28T00:10:40;5.97;;;4.23;;
14381;SDS011;7275;50.328;8.720;2022-10-28T00:13:09;5.43;;;3.70;;
14381;SDS011;7275;50.328;8.720;2022-10-28T00:15:36;4.77;;;3.60;;
14381;SDS011;7275;50.328;8.720;2022-10-28T00:18:03;5.40;;;3.23;;
14381;SDS011;7275;50.328;8.720;2022-10-28T00:20:31;5.43;;;3.17;;
14381;SDS011;7275;50.328;8.720;2022-10-28T00:22:59;3.87;;;3.13;;
14381;SDS011;7275;50.328;8.720;2022-10-28T00:25:26;5.30;;;3.60;;
14381;SDS011;7275;50.328;8.720;2022-10-28T00:27:53;4.10;;;3.07;;
14381;SDS011;7275;50.328;8.720;2022-10-28T00:30:22;4.47;;;3.27;;
14381;SDS011;7275;50.328;8.720;2022-10-28T00:32:51;4.03;;;3.40;;
14381;SDS011;7275;50.328;8.720;2022-10-28T00:35:19;6.60;;;3.80;;
14381;SDS011;7275;50.328;8.720;2022-10-28T00:37:46;4.10;;;3.40;;
14381;SDS011;7275;50.328;8.720;2022-10-28T00:40:14;5.43;;;3.67;;
14381;SDS011;7275;50.328;8.720;2022-10-28T00:42:41;3.90;;;3.50;;
14381;SDS011;7275;50.328;8.720;2022-10-28T00:45:09;6.60;;;4.10;;
14381;SDS011;7275;50.328;8.720;2022-10-28T00:47:42;7.40;;;4.20;;
14381;SDS011;7275;50.328;8.720;2022-10-28T00:50:21;5.93;;;4.23;;
14381;SDS011;7275;50.328;8.720;2022-10-28T00:52:59;7.53;;;4.60;;
14381;SDS011;7275;50.328;8.720;2022-10-28T00:55:29;5.47;;;4.27;;
14381;SDS011;7275;50.328;8.720;2022-10-28T00:57:58;7.53;;;4.87;;
14381;SDS011;7275;50.328;8.720;2022-10-28T01:00:28;6.43;;;4.53;;
14381;SDS011;7275;50.328;8.720;2022-10-28T01:02:57;5.20;;;4.37;;
14381;SDS011;7275;50.328;8.720;2022-10-28T01:05:25;5.50;;;4.50;;
14381;SDS011;7275;50.328;8.720;2022-10-28T01:07:56;7.40;;;4.50;;
14381;SDS011;7275;50.328;8.720;2022-10-28T01:10:32;5.10;;;4.40;;
14381;SDS011;7275;50.328;8.720;2022-10-28T01:13:10;6.30;;;4.17;;
14381;SDS011;7275;50.328;8.720;2022-10-28T01:15:48;7.43;;;4.60;;
14381;SDS011;7275;50.328;8.720;2022-10-28T01:18:25;4.50;;;4.10;;
14381;SDS011;7275;50.328;8.720;2022-10-28T01:21:04;6.77;;;4.40;;
14381;SDS011;7275;50.328;8.720;2022-10-28T01:23:47;5.63;;;3.90;;
14381;SDS011;7275;50.328;8.720;2022-10-28T01:26:29;5.57;;;4.27;;
14381;SDS011;7275;50.328;8.720;2022-10-28T01:29:28;5.90;;;4.23;;
14381;SDS011;7275;50.328;8.720;2022-10-28T01:32:08;7.23;;;4.80;;
14381;SDS011;7275;50.328;8.720;2022-10-28T01:34:45;5.77;;;4.63;;
14381;SDS011;7275;50.328;8.720;2022-10-28T01:37:21;5.23;;;4.37;;
14381;SDS011;7275;50.328;8.720;2022-10-28T01:39:58;5.90;;;4.43;;
14381;SDS011;7275;50.328;8.720;2022-10-28T01:42:33;4.73;;;4.10;;
14381;SDS011;7275;50.328;8.720;2022-10-28T01:45:09;4.53;;;3.97;;
14381;SDS011;7275;50.328;8.720;2022-10-28T01:47:44;4.67;;;4.10;;
14381;SDS011;7275;50.328;8.720;2022-10-28T01:50:17;5.70;;;4.20;;
14381;SDS011;7275;50.328;8.720;2022-10-28T01:52:51;6.00;;;4.57;;
14381;SDS011;7275;50.328;8.720;2022-10-28T01:55:24;5.83;;;4.40;;
14381;SDS011;7275;50.328;8.720;2022-10-28T01:57:55;5.47;;;4.67;;
14381;SDS011;7275;50.328;8.720;2022-10-28T02:00:25;6.27;;;4.60;;
14381;SDS011;7275;50.328;8.720;2022-10-28T02:02:54;6.70;;;5.10;;
14381;SDS011;7275;50.328;8.720;2022-10-28T02:05:38;5.93;;;4.83;;
14381;SDS011;7275;50.328;8.720;2022-10-28T02:08:20;6.67;;;4.80;;
14381;SDS011;7275;50.328;8.720;2022-10-28T02:10:58;7.97;;;5.10;;
14381;SDS011;7275;50.328;8.720;2022-10-28T02:13:36;5.17;;;4.67;;
14381;SDS011;7275;50.328;8.720;2022-10-28T02:16:13;6.90;;;4.80;;
14381;SDS011;7275;50.328;8.720;2022-10-28T02:18:49;6.27;;;5.07;;
14381;SDS011;7275;50.328;8.720;2022-10-28T02:21:26;5.27;;;4.77;;
14381;SDS011;7275;50.328;8.720;2022-10-28T02:24:09;6.80;;;5.00;;
14381;SDS011;7275;50.328;8.720;2022-10-28T02:26:46;6.00;;;4.90;;
14381;SDS011;7275;50.328;8.720;2022-10-28T02:29:19;5.23;;;4.40;;
14381;SDS011;7275;50.328;8.720;2022-10-28T02:31:54;6.93;;;5.03;;
14381;SDS011;7275;50.328;8.720;2022-10-28T02:34:27;6.23;;;4.90;;
14381;SDS011;7275;50.328;8.720;2022-10-28T02:36:58;8.40;;;5.27;;
14381;SDS011;7275;50.328;8.720;2022-10-28T02:39:31;5.87;;;4.93;;
14381;SDS011;7275;50.328;8.720;2022-10-28T02:42:02;6.70;;;5.40;;
14381;SDS011;7275;50.328;8.720;2022-10-28T02:44:33;5.70;;;4.90;;
14381;SDS011;7275;50.328;8.720;2022-10-28T02:47:06;6.30;;;4.33;;
14381;SDS011;7275;50.328;8.720;2022-10-28T02:49:40;8.27;;;5.13;;
14381;SDS011;7275;50.328;8.720;2022-10-28T02:52:11;6.50;;;4.50;;
14381;SDS011;7275;50.328;8.720;2022-10-28T02:54:40;5.17;;;4.60;;
14381;SDS011;7275;50.328;8.720;2022-10-28T02:57:12;6.20;;;5.10;;
14381;SDS011;7275;50.328;8.720;2022-10-28T02:59:42;5.40;;;4.77;;
14381;SDS011;7275;50.328;8.720;2022-10-28T03:02:17;8.23;;;5.00;;
14381;SDS011;7275;50.328;8.720;2022-10-28T03:04:46;5.27;;;4.70;;
14381;SDS011;7275;50.328;8.720;2022-10-28T03:07:13;5.70;;;4.67;;
14381;SDS011;7275;50.328;8.720;2022-10-28T03:09:41;6.27;;;4.97;;
14381;SDS011;7275;50.328;8.720;2022-10-28T03:12:08;7.97;;;4.50;;
14381;SDS011;7275;50.328;8.720;2022-10-28T03:14:36;4.70;;;4.20;;
14381;SDS011;7275;50.328;8.720;2022-10-28T03:17:03;4.90;;;4.00;;
14381;SDS011;7275;50.328;8.720;2022-10-28T03:19:32;4.20;;;3.80;;
14381;SDS011;7275;50.328;8.720;2022-10-28T03:22:01;4.63;;;3.83;;
14381;SDS011;7275;50.328;8.720;2022-10-28T03:24:29;4.23;;;3.63;;
14381;SDS011;7275;50.328;8.720;2022-10-28T03:26:57;5.40;;;4.07;;
14381;SDS011;7275;50.328;8.720;2022-10-28T03:29:24;5.63;;;3.70;;
14381;SDS011;7275;50.328;8.720;2022-10-28T03:31:52;5.37;;;4.00;;
14381;SDS011;7275;50.328;8.720;2022-10-28T03:34:19;5.33;;;3.90;;
14381;SDS011;7275;50.328;8.720;2022-10-28T03:36:46;7.40;;;4.17;;
14381;SDS011;7275;50.328;8.720;2022-10-28T03:39:16;5.23;;;3.90;;
14381;SDS011;7275;50.328;8.720;2022-10-28T03:41:43;6.73;;;4.30;;
14381;SDS011;7275;50.328;8.720;2022-10-28T03:44:11;5.77;;;3.93;;
14381;SDS011;7275;50.328;8.720;2022-10-28T03:46:38;4.33;;;3.87;;
14381;SDS011;7275;50.328;8.720;2022-10-28T03:49:06;4.57;;;4.17;;
14381;SDS011;7275;50.328;8.720;2022-10-28T03:51:33;4.77;;;4.23;;
14381;SDS011;7275;50.328;8.720;2022-10-28T03:54:01;5.77;;;3.93;;
14381;SDS011;7275;50.328;8.720;2022-10-28T03:56:29;5.37;;;4.00;;
14381;SDS011;7275;50.328;8.720;2022-10-28T03:58:57;4.17;;;3.77;;
14381;SDS011;7275;50.328;8.720;2022-10-28T04:01:24;4.97;;;4.03;;
14381;SDS011;7275;50.328;8.720;2022-10-28T04:03:52;6.40;;;3.87;;
14381;SDS011;7275;50.328;8.720;2022-10-28T04:06:19;5.37;;;3.80;;
14381;SDS011;7275;50.328;8.720;2022-10-28T04:08:47;5.27;;;3.90;;
14381;SDS011;7275;50.328;8.720;2022-10-28T04:11:14;4.07;;;3.67;;
14381;SDS011;7275;50.328;8.720;2022-10-28T04:13:43;4.70;;;4.13;;
14381;SDS011;7275;50.328;8.720;2022-10-28T04:16:10;5.70;;;4.37;;
14381;SDS011;7275;50.328;8.720;2022-10-28T04:18:38;4.43;;;4.03;;
14381;SDS011;7275;50.328;8.720;2022-10-28T04:21:05;5.23;;;4.17;;
14381;SDS011;7275;50.328;8.720;2022-10-28T04:23:33;4.43;;;4.03;;
14381;SDS011;7275;50.328;8.720;2022-10-28T04:26:00;5.20;;;4.33;;
14381;SDS011;7275;50.328;8.720;2022-10-28T04:28:28;6.17;;;4.67;;
14381;SDS011;7275;50.328;8.720;2022-10-28T04:30:56;6.43;;;4.33;;
14381;SDS011;7275;50.328;8.720;2022-10-28T04:33:24;5.77;;;4.37;;
14381;SDS011;7275;50.328;8.720;2022-10-28T04:35:51;4.63;;;4.17;;
14381;SDS011;7275;50.328;8.720;2022-10-28T04:38:19;7.20;;;4.90;;
14381;SDS011;7275;50.328;8.720;2022-10-28T04:40:47;6.93;;;4.33;;
14381;SDS011;7275;50.328;8.720;2022-10-28T04:43:14;5.27;;;4.27;;
14381;SDS011;7275;50.328;8.720;2022-10-28T04:45:42;6.40;;;4.97;;
14381;SDS011;7275;50.328;8.720;2022-10-28T04:48:12;6.00;;;4.70;;
14381;SDS011;7275;50.328;8.720;2022-10-28T04:50:40;6.80;;;4.90;;
14381;SDS011;7275;50.328;8.720;2022-10-28T04:53:07;6.43;;;5.30;;
14381;SDS011;7275;50.328;8.720;2022-10-28T04:55:35;7.37;;;5.80;;
14381;SDS011;7275;50.328;8.720;2022-10-28T04:58:02;7.40;;;5.57;;
14381;SDS011;7275;50.328;8.720;2022-10-28T05:00:29;6.83;;;5.13;;
14381;SDS011;7275;50.328;8.720;2022-10-28T05:02:59;6.93;;;5.47;;
14381;SDS011;7275;50.328;8.720;2022-10-28T05:05:28;7.17;;;5.60;;
14381;SDS011;7275;50.328;8.720;2022-10-28T05:07:56;8.47;;;5.63;;
14381;SDS011;7275;50.328;8.720;2022-10-28T05:10:25;7.70;;;5.70;;
14381;SDS011;7275;50.328;8.720;2022-10-28T05:12:52;6.77;;;5.03;;
14381;SDS011;7275;50.328;8.720;2022-10-28T05:15:20;6.93;;;5.63;;
14381;SDS011;7275;50.328;8.720;2022-10-28T05:17:48;6.83;;;5.30;;
14381;SDS011;7275;50.328;8.720;2022-10-28T05:20:16;7.60;;;5.90;;
14381;SDS011;7275;50.328;8.720;2022-10-28T05:22:45;8.30;;;6.00;;
14381;SDS011;7275;50.328;8.720;2022-10-28T05:25:14;7.43;;;5.57;;
14381;SDS011;7275;50.328;8.720;2022-10-28T05:27:41;8.20;;;5.73;;
14381;SDS011;7275;50.328;8.720;2022-10-28T05:30:09;9.87;;;6.57;;
14381;SDS011;7275;50.328;8.720;2022-10-28T05:32:38;8.93;;;6.87;;
14381;SDS011;7275;50.328;8.720;2022-10-28T05:35:06;9.17;;;6.43;;
14381;SDS011;7275;50.328;8.720;2022-10-28T05:37:34;7.77;;;6.10;;
14381;SDS011;7275;50.328;8.720;2022-10-28T05:40:03;6.97;;;5.93;;
14381;SDS011;7275;50.328;8.720;2022-10-28T05:42:31;9.40;;;5.93;;
14381;SDS011;7275;50.328;8.720;2022-10-28T05:44:58;10.43;;;6.10;;
14381;SDS011;7275;50.328;8.720;2022-10-28T05:47:26;8.53;;;6.00;;
14381;SDS011;7275;50.328;8.720;2022-10-28T05:49:53;9.20;;;6.03;;
14381;SDS011;7275;50.328;8.720;2022-10-28T05:52:20;8.00;;;5.87;;
14381;SDS011;7275;50.328;8.720;2022-10-28T05:54:48;9.40;;;6.03;;
14381;SDS011;7275;50.328;8.720;2022-10-28T05:57:16;8.83;;;6.07;;
14381;SDS011;7275;50.328;8.720;2022-10-28T05:59:44;6.83;;;5.77;;
14381;SDS011;7275;50.328;8.720;2022-10-28T06:02:12;8.83;;;5.97;;
14381;SDS011;7275;50.328;8.720;2022-10-28T06:04:40;7.40;;;5.53;;
14381;SDS011;7275;50.328;8.720;2022-10-28T06:07:07;7.23;;;5.57;;
14381;SDS011;7275;50.328;8.720;2022-10-28T06:09:35;6.27;;;5.07;;
14381;SDS011;7275;50.328;8.720;2022-10-28T06:12:04;7.80;;;5.27;;
14381;SDS011;7275;50.328;8.720;2022-10-28T06:14:34;8.27;;;5.70;;
14381;SDS011;7275;50.328;8.720;2022-10-28T06:17:02;9.50;;;5.70;;
14381;SDS011;7275;50.328;8.720;2022-10-28T06:19:29;7.77;;;5.50;;
14381;SDS011;7275;50.328;8.720;2022-10-28T06:21:57;8.40;;;5.87;;
14381;SDS011;7275;50.328;8.720;2022-10-28T06:24:24;8.03;;;5.47;;
14381;SDS011;7275;50.328;8.720;2022-10-28T06:26:51;6.70;;;5.17;;
14381;SDS011;7275;50.328;8.720;2022-10-28T06:29:19;8.17;;;4.80;;
14381;SDS011;7275;50.328;8.720;2022-10-28T06:31:48;6.53;;;4.80;;
14381;SDS011;7275;50.328;8.720;2022-10-28T06:34:15;8.23;;;5.03;;
14381;SDS011;7275;50.328;8.720;2022-10-28T06:36:43;7.00;;;4.77;;
14381;SDS011;7275;50.328;8.720;2022-10-28T06:39:10;8.13;;;4.97;;
14381;SDS011;7275;50.328;8.720;2022-10-28T06:41:38;9.30;;;6.17;;
14381;SDS011;7275;50.328;8.720;2022-10-28T06:44:05;12.10;;;7.97;;
14381;SDS011;7275;50.328;8.720;2022-10-28T06:46:32;10.10;;;7.77;;
14381;SDS011;7275;50.328;8.720;2022-10-28T06:49:01;8.67;;;5.90;;
14381;SDS011;7275;50.328;8.720;2022-10-28T06:51:30;7.43;;;5.33;;
14381;SDS011;7275;50.328;8.720;2022-10-28T06:53:58;7.07;;;4.93;;
14381;SDS011;7275;50.328;8.720;2022-10-28T06:56:25;5.73;;;4.63;;
14381;SDS011;7275;50.328;8.720;2022-10-28T06:58:53;6.77;;;4.53;;
14381;SDS011;7275;50.328;8.720;2022-10-28T07:01:21;6.57;;;4.37;;
14381;SDS011;7275;50.328;8.720;2022-10-28T07:03:49;6.17;;;4.60;;
14381;SDS011;7275;50.328;8.720;2022-10-28T07:06:17;5.93;;;4.27;;
14381;SDS011;7275;50.328;8.720;2022-10-28T07:08:45;8.77;;;4.27;;
14381;SDS011;7275;50.328;8.720;2022-10-28T07:11:12;5.20;;;4.00;;
14381;SDS011;7275;50.328;8.720;2022-10-28T07:13:40;4.73;;;4.07;;
14381;SDS011;7275;50.328;8.720;2022-10-28T07:16:11;5.33;;;4.17;;
14381;SDS011;7275;50.328;8.720;2022-10-28T07:18:39;5.33;;;4.13;;
14381;SDS011;7275;50.328;8.720;2022-10-28T07:21:06;4.97;;;4.40;;
14381;SDS011;7275;50.328;8.720;2022-10-28T07:23:35;5.27;;;4.10;;
14381;SDS011;7275;50.328;8.720;2022-10-28T07:26:03;7.27;;;4.47;;
14381;SDS011;7275;50.328;8.720;2022-10-28T07:28:30;5.20;;;4.50;;
14381;SDS011;7275;50.328;8.720;2022-10-28T07:30:59;6.30;;;4.20;;
14381;SDS011;7275;50.328;8.720;2022-10-28T07:33:27;8.17;;;4.67;;
14381;SDS011;7275;50.328;8.720;2022-10-28T07:35:54;5.40;;;4.47;;
14381;SDS011;7275;50.328;8.720;2022-10-28T07:38:22;5.73;;;4.17;;
14381;SDS011;7275;50.328;8.720;2022-10-28T07:40:50;5.50;;;4.47;;
14381;SDS011;7275;50.328;8.720;2022-10-28T07:43:18;5.57;;;4.30;;
14381;SDS011;7275;50.328;8.720;2022-10-28T07:45:45;5.77;;;4.50;;
14381;SDS011;7275;50.328;8.720;2022-10-28T07:48:13;6.30;;;4.50;;
14381;SDS011;7275;50.328;8.720;2022-10-28T07:50:41;6.47;;;4.30;;
14381;SDS011;7275;50.328;8.720;2022-10-28T07:53:08;5.70;;;4.50;;
14381;SDS011;7275;50.328;8.720;2022-10-28T07:55:36;4.87;;;4.10;;
14381;SDS011;7275;50.328;8.720;2022-10-28T07:58:04;6.67;;;4.60;;
14381;SDS011;7275;50.328;8.720;2022-10-28T08:00:32;6.47;;;4.57;;
14381;SDS011;7275;50.328;8.720;2022-10-28T08:03:00;7.67;;;4.57;;
14381;SDS011;7275;50.328;8.720;2022-10-28T08:05:28;4.93;;;4.00;;
14381;SDS011;7275;50.328;8.720;2022-10-28T08:07:55;5.50;;;4.00;;
14381;SDS011;7275;50.328;8.720;2022-10-28T08:10:23;5.17;;;4.27;;
14381;SDS011;7275;50.328;8.720;2022-10-28T08:12:50;5.70;;;4.27;;
14381;SDS011;7275;50.328;8.720;2022-10-28T08:15:19;7.17;;;4.30;;
14381;SDS011;7275;50.328;8.720;2022-10-28T08:17:49;5.90;;;4.33;;
14381;SDS011;7275;50.328;8.720;2022-10-28T08:20:18;7.60;;;4.70;;
14381;SDS011;7275;50.328;8.720;2022-10-28T08:22:46;7.30;;;4.70;;
14381;SDS011;7275;50.328;8.720;2022-10-28T08:25:13;7.10;;;4.63;;
14381;SDS011;7275;50.328;8.720;2022-10-28T08:27:41;5.90;;;4.57;;
14381;SDS011;7275;50.328;8.720;2022-10-28T08:30:08;5.33;;;4.40;;
14381;SDS011;7275;50.328;8.720;2022-10-28T08:32:38;7.00;;;4.77;;
14381;SDS011;7275;50.328;8.720;2022-10-28T08:35:06;6.57;;;4.67;;
14381;SDS011;7275;50.328;8.720;2022-10-28T08:37:34;6.87;;;4.83;;
14381;SDS011;7275;50.328;8.720;2022-10-28T08:40:01;6.87;;;5.00;;
14381;SDS011;7275;50.328;8.720;2022-10-28T08:42:32;8.47;;;5.30;;
14381;SDS011;7275;50.328;8.720;2022-10-28T08:45:16;5.13;;;4.50;;
14381;SDS011;7275;50.328;8.720;2022-10-28T08:47:54;7.30;;;5.07;;
14381;SDS011;7275;50.328;8.720;2022-10-28T08:50:29;6.83;;;5.00;;
14381;SDS011;7275;50.328;8.720;2022-10-28T08:52:59;7.27;;;5.30;;
14381;SDS011;7275;50.328;8.720;2022-10-28T08:55:32;6.17;;;4.90;;
14381;SDS011;7275;50.328;8.720;2022-10-28T08:58:05;7.73;;;5.50;;
14381;SDS011;7275;50.328;8.720;2022-10-28T09:00:36;7.13;;;5.27;;
14381;SDS011;7275;50.328;8.720;2022-10-28T09:03:12;7.97;;;5.03;;
14381;SDS011;7275;50.328;8.720;2022-10-28T09:05:45;6.23;;;5.13;;
14381;SDS011;7275;50.328;8.720;2022-10-28T09:08:18;7.23;;;5.47;;
14381;SDS011;7275;50.328;8.720;2022-10-28T09:10:59;5.63;;;5.03;;
14381;SDS011;7275;50.328;8.720;2022-10-28T09:13:35;7.17;;;5.33;;
14381;SDS011;7275;50.328;8.720;2022-10-28T09:16:13;9.13;;;5.20;;
14381;SDS011;7275;50.328;8.720;2022-10-28T09:18:53;7.33;;;5.20;;
14381;SDS011;7275;50.328;8.720;2022-10-28T09:21:23;9.50;;;5.57;;
14381;SDS011;7275;50.328;8.720;2022-10-28T09:23:58;7.17;;;5.20;;
14381;SDS011;7275;50.328;8.720;2022-10-28T09:26:35;7.43;;;4.93;;
14381;SDS011;7275;50.328;8.720;2022-10-28T09:29:12;6.63;;;5.57;;
14381;SDS011;7275;50.328;8.720;2022-10-28T09:31:52;8.23;;;5.73;;
14381;SDS011;7275;50.328;8.720;2022-10-28T09:34:28;8.77;;;5.20;;
14381;SDS011;7275;50.328;8.720;2022-10-28T09:37:02;7.10;;;5.60;;
14381;SDS011;7275;50.328;8.720;2022-10-28T09:39:33;7.23;;;5.37;;
14381;SDS011;7275;50.328;8.720;2022-10-28T09:42:07;7.73;;;5.23;;
14381;SDS011;7275;50.328;8.720;2022-10-28T09:44:40;6.80;;;5.57;;
14381;SDS011;7275;50.328;8.720;2022-10-28T09:47:12;8.17;;;5.20;;
14381;SDS011;7275;50.328;8.720;2022-10-28T09:49:43;6.50;;;5.23;;
14381;SDS011;7275;50.328;8.720;2022-10-28T09:52:15;7.30;;;5.33;;
14381;SDS011;7275;50.328;8.720;2022-10-28T09:54:47;7.90;;;4.90;;
14381;SDS011;7275;50.328;8.720;2022-10-28T09:57:17;7.57;;;5.10;;
14381;SDS011;7275;50.328;8.720;2022-10-28T09:59:45;7.87;;;5.03;;
14381;SDS011;7275;50.328;8.720;2022-10-28T10:02:21;6.93;;;5.00;;
14381;SDS011;7275;50.328;8.720;2022-10-28T10:04:54;8.63;;;5.28;;
14381;SDS011;7275;50.328;8.720;2022-10-28T10:07:28;6.97;;;4.70;;
14381;SDS011;7275;50.328;8.720;2022-10-28T10:10:02;8.02;;;5.20;;
14381;SDS011;7275;50.328;8.720;2022-10-28T10:12:33;5.22;;;4.07;;
14381;SDS011;7275;50.328;8.720;2022-10-28T10:15:00;5.72;;;4.57;;
14381;SDS011;7275;50.328;8.720;2022-10-28T10:17:34;6.38;;;4.65;;
14381;SDS011;7275;50.328;8.720;2022-10-28T10:20:08;5.38;;;4.15;;
14381;SDS011;7275;50.328;8.720;2022-10-28T10:22:38;6.15;;;4.10;;
14381;SDS011;7275;50.328;8.720;2022-10-28T10:25:20;7.28;;;4.20;;
14381;SDS011;7275;50.328;8.720;2022-10-28T10:27:50;7.20;;;3.55;;
14381;SDS011;7275;50.328;8.720;2022-10-28T10:30:20;4.93;;;3.20;;
14381;SDS011;7275;50.328;8.720;2022-10-28T10:32:50;6.22;;;3.33;;
14381;SDS011;7275;50.328;8.720;2022-10-28T10:35:20;8.40;;;3.70;;
14381;SDS011;7275;50.328;8.720;2022-10-28T10:37:51;6.93;;;3.28;;
14381;SDS011;7275;50.328;8.720;2022-10-28T10:40:22;4.57;;;3.38;;
14381;SDS011;7275;50.328;8.720;2022-10-28T10:42:52;6.80;;;3.67;;
14381;SDS011;7275;50.328;8.720;2022-10-28T10:45:38;4.43;;;3.17;;
14381;SDS011;7275;50.328;8.720;2022-10-28T10:48:10;5.65;;;3.10;;
14381;SDS011;7275;50.328;8.720;2022-10-28T10:50:41;6.05;;;3.60;;
14381;SDS011;7275;50.328;8.720;2022-10-28T10:53:18;7.35;;;3.60;;
14381;SDS011;7275;50.328;8.720;2022-10-28T10:55:48;6.55;;;3.70;;
14381;SDS011;7275;50.328;8.720;2022-10-28T10:58:18;5.97;;;3.40;;
14381;SDS011;7275;50.328;8.720;2022-10-28T11:00:48;4.88;;;3.03;;
14381;SDS011;7275;50.328;8.720;2022-10-28T11:03:18;5.97;;;3.35;;
14381;SDS011;7275;50.328;8.720;2022-10-28T11:05:52;7.18;;;3.28;;
14381;SDS011;7275;50.328;8.720;2022-10-28T11:08:41;5.50;;;3.28;;
14381;SDS011;7275;50.328;8.720;2022-10-28T11:11:11;3.88;;;3.13;;
14381;SDS011;7275;50.328;8.720;2022-10-28T11:13:40;7.20;;;2.97;;
14381;SDS011;7275;50.328;8.720;2022-10-28T11:16:16;6.25;;;2.92;;
14381;SDS011;7275;50.328;8.720;2022-10-28T11:18:45;5.82;;;3.13;;
14381;SDS011;7275;50.328;8.720;2022-10-28T11:24:15;4.88;;;3.10;;
14381;SDS011;7275;50.328;8.720;2022-10-28T11:27:03;5.22;;;2.95;;
14381;SDS011;7275;50.328;8.720;2022-10-28T11:29:41;4.00;;;2.72;;
14381;SDS011;7275;50.328;8.720;2022-10-28T11:32:15;4.75;;;2.88;;
14381;SDS011;7275;50.328;8.720;2022-10-28T11:35:02;8.65;;;3.20;;
14381;SDS011;7275;50.328;8.720;2022-10-28T11:37:51;3.55;;;2.55;;
14381;SDS011;7275;50.328;8.720;2022-10-28T11:40:28;4.03;;;2.85;;
14381;SDS011;7275;50.328;8.720;2022-10-28T11:43:01;5.20;;;3.15;;
14381;SDS011;7275;50.328;8.720;2022-10-28T11:45:38;5.38;;;3.15;;
14381;SDS011;7275;50.328;8.720;2022-10-28T11:48:21;4.85;;;2.60;;
14381;SDS011;7275;50.328;8.720;2022-10-28T11:51:05;5.55;;;2.90;;
14381;SDS011;7275;50.328;8.720;2022-10-28T11:53:47;5.75;;;3.20;;
14381;SDS011;7275;50.328;8.720;2022-10-28T11:56:30;5.40;;;2.85;;
14381;SDS011;7275;50.328;8.720;2022-10-28T11:59:06;8.00;;;3.15;;
14381;SDS011;7275;50.328;8.720;2022-10-28T12:01:49;6.65;;;2.70;;
14381;SDS011;7275;50.328;8.720;2022-10-28T12:04:25;7.72;;;3.13;;
14381;SDS011;7275;50.328;8.720;2022-10-28T12:07:12;7.38;;;3.13;;
14381;SDS011;7275;50.328;8.720;2022-10-28T12:09:57;4.95;;;2.72;;
14381;SDS011;7275;50.328;8.720;2022-10-28T12:12:37;3.88;;;2.67;;
14381;SDS011;7275;50.328;8.720;2022-10-28T12:15:17;5.45;;;2.80;;
14381;SDS011;7275;50.328;8.720;2022-10-28T12:17:51;5.75;;;2.85;;
14381;SDS011;7275;50.328;8.720;2022-10-28T12:20:25;4.22;;;2.40;;
14381;SDS011;7275;50.328;8.720;2022-10-28T12:23:00;4.60;;;2.45;;
14381;SDS011;7275;50.328;8.720;2022-10-28T12:25:33;10.43;;;2.50;;
14381;SDS011;7275;50.328;8.720;2022-10-28T12:28:03;4.47;;;2.60;;
14381;SDS011;7275;50.328;8.720;2022-10-28T12:30:34;5.30;;;2.38;;
14381;SDS011;7275;50.328;8.720;2022-10-28T12:33:06;4.25;;;2.85;;
14381;SDS011;7275;50.328;8.720;2022-10-28T12:35:43;4.75;;;2.65;;
14381;SDS011;7275;50.328;8.720;2022-10-28T12:38:15;5.90;;;2.72;;
14381;SDS011;7275;50.328;8.720;2022-10-28T12:40:51;4.22;;;2.67;;
14381;SDS011;7275;50.328;8.720;2022-10-28T12:43:26;4.25;;;2.72;;
14381;SDS011;7275;50.328;8.720;2022-10-28T12:45:59;4.72;;;2.65;;
14381;SDS011;7275;50.328;8.720;2022-10-28T12:48:29;4.25;;;2.40;;
14381;SDS011;7275;50.328;8.720;2022-10-28T12:51:00;6.28;;;2.50;;
14381;SDS011;7275;50.328;8.720;2022-10-28T12:53:33;4.65;;;2.83;;
14381;SDS011;7275;50.328;8.720;2022-10-28T12:56:05;4.18;;;2.60;;
14381;SDS011;7275;50.328;8.720;2022-10-28T12:58:40;5.10;;;2.60;;
14381;SDS011;7275;50.328;8.720;2022-10-28T13:01:20;3.95;;;2.50;;
14381;SDS011;7275;50.328;8.720;2022-10-28T13:03:51;5.63;;;2.65;;
14381;SDS011;7275;50.328;8.720;2022-10-28T13:06:25;5.85;;;2.55;;
14381;SDS011;7275;50.328;8.720;2022-10-28T13:09:12;5.10;;;2.30;;
14381;SDS011;7275;50.328;8.720;2022-10-28T13:15:00;6.25;;;2.33;;
14381;SDS011;7275;50.328;8.720;2022-10-28T13:17:46;4.28;;;2.60;;
14381;SDS011;7275;50.328;8.720;2022-10-28T13:20:25;6.60;;;2.58;;
14381;SDS011;7275;50.328;8.720;2022-10-28T13:23:09;5.22;;;2.45;;
14381;SDS011;7275;50.328;8.720;2022-10-28T13:28:42;4.88;;;2.30;;
14381;SDS011;7275;50.328;8.720;2022-10-28T13:31:13;6.03;;;2.45;;
14381;SDS011;7275;50.328;8.720;2022-10-28T13:33:45;7.10;;;2.85;;
14381;SDS011;7275;50.328;8.720;2022-10-28T13:36:17;6.30;;;2.85;;
14381;SDS011;7275;50.328;8.720;2022-10-28T13:38:51;4.78;;;2.53;;
14381;SDS011;7275;50.328;8.720;2022-10-28T13:41:27;5.30;;;2.58;;
14381;SDS011;7275;50.328;8.720;2022-10-28T13:50:19;5.20;;;2.13;;
14381;SDS011;7275;50.328;8.720;2022-10-28T14:02:21;5.78;;;2.40;;
14381;SDS011;7275;50.328;8.720;2022-10-28T14:05:02;4.80;;;2.53;;
14381;SDS011;7275;50.328;8.720;2022-10-28T14:07:37;4.93;;;2.63;;
14381;SDS011;7275;50.328;8.720;2022-10-28T14:10:19;7.40;;;2.75;;
14381;SDS011;7275;50.328;8.720;2022-10-28T14:12:50;5.10;;;2.55;;
14381;SDS011;7275;50.328;8.720;2022-10-28T14:15:24;6.63;;;2.60;;
14381;SDS011;7275;50.328;8.720;2022-10-28T14:17:55;6.68;;;2.58;;
14381;SDS011;7275;50.328;8.720;2022-10-28T14:20:52;5.30;;;2.50;;
14381;SDS011;7275;50.328;8.720;2022-10-28T14:29:41;5.22;;;2.60;;
14381;SDS011;7275;50.328;8.720;2022-10-28T14:35:14;5.75;;;2.50;;
14381;SDS011;7275;50.328;8.720;2022-10-28T14:38:02;4.07;;;2.90;;
14381;SDS011;7275;50.328;8.720;2022-10-28T14:40:53;4.43;;;2.30;;
14381;SDS011;7275;50.328;8.720;2022-10-28T14:43:34;7.80;;;2.40;;
14381;SDS011;7275;50.328;8.720;2022-10-28T14:46:12;7.05;;;2.63;;
14381;SDS011;7275;50.328;8.720;2022-10-28T14:48:52;5.85;;;2.90;;
14381;SDS011;7275;50.328;8.720;2022-10-28T14:51:22;4.15;;;2.70;;
14381;SDS011;7275;50.328;8.720;2022-10-28T14:53:53;5.90;;;2.97;;
14381;SDS011;7275;50.328;8.720;2022-10-28T14:56:24;4.78;;;2.60;;
14381;SDS011;7275;50.328;8.720;2022-10-28T14:58:56;5.82;;;2.50;;
14381;SDS011;7275;50.328;8.720;2022-10-28T15:01:25;5.65;;;2.55;;
14381;SDS011;7275;50.328;8.720;2022-10-28T15:03:56;9.57;;;3.20;;
14381;SDS011;7275;50.328;8.720;2022-10-28T15:06:29;5.90;;;2.67;;
14381;SDS011;7275;50.328;8.720;2022-10-28T15:09:03;6.22;;;2.75;;
14381;SDS011;7275;50.328;8.720;2022-10-28T15:11:35;6.22;;;2.63;;
14381;SDS011;7275;50.328;8.720;2022-10-28T15:14:22;4.72;;;2.58;;
14381;SDS011;7275;50.328;8.720;2022-10-28T15:16:52;6.50;;;2.60;;
14381;SDS011;7275;50.328;8.720;2022-10-28T15:19:21;4.22;;;2.55;;
14381;SDS011;7275;50.328;8.720;2022-10-28T15:22:04;5.95;;;2.63;;
14381;SDS011;7275;50.328;8.720;2022-10-28T15:24:36;4.43;;;2.40;;
14381;SDS011;7275;50.328;8.720;2022-10-28T15:27:11;4.50;;;2.50;;
14381;SDS011;7275;50.328;8.720;2022-10-28T15:29:40;4.82;;;2.85;;
14381;SDS011;7275;50.328;8.720;2022-10-28T15:32:09;4.03;;;2.40;;
14381;SDS011;7275;50.328;8.720;2022-10-28T15:34:42;3.92;;;2.60;;
14381;SDS011;7275;50.328;8.720;2022-10-28T15:37:10;6.47;;;2.83;;
14381;SDS011;7275;50.328;8.720;2022-10-28T15:39:43;4.22;;;2.20;;
14381;SDS011;7275;50.328;8.720;2022-10-28T15:42:27;6.70;;;2.42;;
14381;SDS011;7275;50.328;8.720;2022-10-28T15:44:57;5.95;;;2.50;;
14381;SDS011;7275;50.328;8.720;2022-10-28T15:47:28;4.35;;;2.90;;
14381;SDS011;7275;50.328;8.720;2022-10-28T15:49:59;4.95;;;2.80;;
14381;SDS011;7275;50.328;8.720;2022-10-28T15:52:33;6.25;;;2.58;;
14381;SDS011;7275;50.328;8.720;2022-10-28T15:55:22;5.60;;;2.70;;
14381;SDS011;7275;50.328;8.720;2022-10-28T15:58:33;5.07;;;2.60;;
14381;SDS011;7275;50.328;8.720;2022-10-28T16:01:06;3.72;;;2.38;;
14381;SDS011;7275;50.328;8.720;2022-10-28T16:03:42;4.45;;;2.85;;